sensor_id;sensor_type;location;lat;lon;timestamp;P1;durP1;ratioP1;P2;durP2;ratioP2
20363;SDS011;10340;53.664;9.908;2022-12-07T00:01:38;12.53;;;9.90;;
20363;SDS011;10340;53.664;9.908;2022-12-07T00:04:09;11.70;;;9.93;;
20363;SDS011;10340;53.664;9.908;2022-12-07T00:06:41;13.23;;;11.30;;
20363;SDS011;10340;53.664;9.908;2022-12-07T00:09:10;12.53;;;10.03;;
20363;SDS011;10340;53.664;9.908;2022-12-07T00:11:39;12.40;;;10.53;;
20363;SDS011;10340;53.664;9.908;2022-12-07T00:14:09;13.63;;;9.70;;
20363;SDS011;10340;53.664;9.908;2022-12-07T00:16:37;10.60;;;9.10;;
20363;SDS011;10340;53.664;9.908;2022-12-07T00:19:05;11.93;;;9.30;;
20363;SDS011;10340;53.664;9.908;2022-12-07T00:21:34;12.20;;;9.90;;
20363;SDS011;10340;53.664;9.908;2022-12-07T00:24:06;10.63;;;9.53;;
20363;SDS011;10340;53.664;9.908;2022-12-07T00:26:34;11.20;;;9.20;;
20363;SDS011;10340;53.664;9.908;2022-12-07T00:29:03;13.80;;;9.30;;
20363;SDS011;10340;53.664;9.908;2022-12-07T00:31:49;11.73;;;9.30;;
20363;SDS011;10340;53.664;9.908;2022-12-07T00:34:17;13.57;;;10.30;;
20363;SDS011;10340;53.664;9.908;2022-12-07T00:36:47;12.57;;;10.07;;
20363;SDS011;10340;53.664;9.908;2022-12-07T00:39:16;11.73;;;9.60;;
20363;SDS011;10340;53.664;9.908;2022-12-07T00:41:47;11.43;;;10.00;;
20363;SDS011;10340;53.664;9.908;2022-12-07T00:44:14;12.33;;;9.93;;
20363;SDS011;10340;53.664;9.908;2022-12-07T00:46:41;12.07;;;9.90;;
20363;SDS011;10340;53.664;9.908;2022-12-07T00:49:17;14.00;;;10.57;;
20363;SDS011;10340;53.664;9.908;2022-12-07T00:51:47;15.50;;;10.57;;
20363;SDS011;10340;53.664;9.908;2022-12-07T00:54:19;12.23;;;9.63;;
20363;SDS011;10340;53.664;9.908;2022-12-07T00:56:48;13.37;;;10.00;;
20363;SDS011;10340;53.664;9.908;2022-12-07T00:59:15;11.20;;;9.63;;
20363;SDS011;10340;53.664;9.908;2022-12-07T01:01:42;12.63;;;9.97;;
20363;SDS011;10340;53.664;9.908;2022-12-07T01:04:12;11.00;;;8.80;;
20363;SDS011;10340;53.664;9.908;2022-12-07T01:06:55;12.70;;;9.53;;
20363;SDS011;10340;53.664;9.908;2022-12-07T01:09:27;11.77;;;9.50;;
20363;SDS011;10340;53.664;9.908;2022-12-07T01:12:04;11.67;;;9.23;;
20363;SDS011;10340;53.664;9.908;2022-12-07T01:14:43;13.47;;;8.97;;
20363;SDS011;10340;53.664;9.908;2022-12-07T01:17:30;12.27;;;9.80;;
20363;SDS011;10340;53.664;9.908;2022-12-07T01:19:58;11.20;;;8.63;;
20363;SDS011;10340;53.664;9.908;2022-12-07T01:22:26;11.83;;;9.60;;
20363;SDS011;10340;53.664;9.908;2022-12-07T01:24:54;13.97;;;9.50;;
20363;SDS011;10340;53.664;9.908;2022-12-07T01:27:21;12.37;;;9.13;;
20363;SDS011;10340;53.664;9.908;2022-12-07T01:29:54;13.63;;;9.57;;
20363;SDS011;10340;53.664;9.908;2022-12-07T01:32:21;12.10;;;9.30;;
20363;SDS011;10340;53.664;9.908;2022-12-07T01:34:53;12.70;;;8.43;;
20363;SDS011;10340;53.664;9.908;2022-12-07T01:37:28;10.03;;;8.47;;
20363;SDS011;10340;53.664;9.908;2022-12-07T01:40:03;11.47;;;8.90;;
20363;SDS011;10340;53.664;9.908;2022-12-07T01:42:49;13.13;;;8.40;;
20363;SDS011;10340;53.664;9.908;2022-12-07T01:45:36;11.83;;;8.07;;
20363;SDS011;10340;53.664;9.908;2022-12-07T01:48:10;11.97;;;7.73;;
20363;SDS011;10340;53.664;9.908;2022-12-07T01:50:51;12.73;;;8.03;;
20363;SDS011;10340;53.664;9.908;2022-12-07T01:53:37;10.47;;;7.30;;
20363;SDS011;10340;53.664;9.908;2022-12-07T01:56:08;12.07;;;8.10;;
20363;SDS011;10340;53.664;9.908;2022-12-07T01:58:37;11.57;;;7.37;;
20363;SDS011;10340;53.664;9.908;2022-12-07T02:01:04;9.73;;;6.70;;
20363;SDS011;10340;53.664;9.908;2022-12-07T02:03:32;8.80;;;7.13;;
20363;SDS011;10340;53.664;9.908;2022-12-07T02:06:04;8.90;;;6.70;;
20363;SDS011;10340;53.664;9.908;2022-12-07T02:08:32;8.20;;;6.80;;
20363;SDS011;10340;53.664;9.908;2022-12-07T02:11:01;14.17;;;7.57;;
20363;SDS011;10340;53.664;9.908;2022-12-07T02:13:31;9.63;;;7.30;;
20363;SDS011;10340;53.664;9.908;2022-12-07T02:16:06;10.17;;;6.77;;
20363;SDS011;10340;53.664;9.908;2022-12-07T02:18:46;9.63;;;7.03;;
20363;SDS011;10340;53.664;9.908;2022-12-07T02:21:23;9.30;;;6.53;;
20363;SDS011;10340;53.664;9.908;2022-12-07T02:24:02;10.60;;;6.50;;
20363;SDS011;10340;53.664;9.908;2022-12-07T02:26:47;9.07;;;5.90;;
20363;SDS011;10340;53.664;9.908;2022-12-07T02:29:42;8.67;;;5.57;;
20363;SDS011;10340;53.664;9.908;2022-12-07T02:32:13;10.70;;;6.37;;
20363;SDS011;10340;53.664;9.908;2022-12-07T02:34:48;10.10;;;5.10;;
20363;SDS011;10340;53.664;9.908;2022-12-07T02:37:24;7.60;;;4.90;;
20363;SDS011;10340;53.664;9.908;2022-12-07T02:39:57;5.80;;;4.37;;
20363;SDS011;10340;53.664;9.908;2022-12-07T02:42:30;7.43;;;5.40;;
20363;SDS011;10340;53.664;9.908;2022-12-07T02:45:02;5.20;;;4.23;;
20363;SDS011;10340;53.664;9.908;2022-12-07T02:47:30;7.07;;;3.13;;
20363;SDS011;10340;53.664;9.908;2022-12-07T02:50:00;5.50;;;3.70;;
20363;SDS011;10340;53.664;9.908;2022-12-07T02:52:29;6.27;;;3.53;;
20363;SDS011;10340;53.664;9.908;2022-12-07T02:54:56;5.37;;;3.20;;
20363;SDS011;10340;53.664;9.908;2022-12-07T02:57:27;4.40;;;2.77;;
20363;SDS011;10340;53.664;9.908;2022-12-07T03:00:06;5.17;;;2.60;;
20363;SDS011;10340;53.664;9.908;2022-12-07T03:02:37;2.90;;;2.37;;
20363;SDS011;10340;53.664;9.908;2022-12-07T03:05:14;5.27;;;2.40;;
20363;SDS011;10340;53.664;9.908;2022-12-07T03:08:03;2.73;;;2.33;;
20363;SDS011;10340;53.664;9.908;2022-12-07T03:10:39;3.47;;;2.17;;
20363;SDS011;10340;53.664;9.908;2022-12-07T03:13:15;2.20;;;2.00;;
20363;SDS011;10340;53.664;9.908;2022-12-07T03:15:51;4.90;;;1.70;;
20363;SDS011;10340;53.664;9.908;2022-12-07T03:18:22;3.77;;;1.83;;
20363;SDS011;10340;53.664;9.908;2022-12-07T03:20:53;2.40;;;1.70;;
20363;SDS011;10340;53.664;9.908;2022-12-07T03:23:25;2.50;;;1.97;;
20363;SDS011;10340;53.664;9.908;2022-12-07T03:25:53;1.93;;;1.73;;
20363;SDS011;10340;53.664;9.908;2022-12-07T03:28:26;1.90;;;1.80;;
20363;SDS011;10340;53.664;9.908;2022-12-07T03:30:59;2.33;;;1.77;;
20363;SDS011;10340;53.664;9.908;2022-12-07T03:33:31;3.43;;;1.80;;
20363;SDS011;10340;53.664;9.908;2022-12-07T03:36:03;1.87;;;1.50;;
20363;SDS011;10340;53.664;9.908;2022-12-07T03:38:35;2.00;;;1.80;;
20363;SDS011;10340;53.664;9.908;2022-12-07T03:41:08;3.40;;;1.90;;
20363;SDS011;10340;53.664;9.908;2022-12-07T03:43:38;2.47;;;1.80;;
20363;SDS011;10340;53.664;9.908;2022-12-07T03:46:09;3.90;;;1.93;;
20363;SDS011;10340;53.664;9.908;2022-12-07T03:48:46;2.53;;;1.83;;
20363;SDS011;10340;53.664;9.908;2022-12-07T03:51:22;3.00;;;1.53;;
20363;SDS011;10340;53.664;9.908;2022-12-07T03:53:54;2.20;;;2.00;;
20363;SDS011;10340;53.664;9.908;2022-12-07T03:56:25;2.23;;;1.90;;
20363;SDS011;10340;53.664;9.908;2022-12-07T03:58:54;4.03;;;2.10;;
20363;SDS011;10340;53.664;9.908;2022-12-07T04:01:23;2.90;;;2.20;;
20363;SDS011;10340;53.664;9.908;2022-12-07T04:03:51;3.63;;;2.40;;
20363;SDS011;10340;53.664;9.908;2022-12-07T04:06:18;2.10;;;1.90;;
20363;SDS011;10340;53.664;9.908;2022-12-07T04:08:45;2.93;;;2.30;;
20363;SDS011;10340;53.664;9.908;2022-12-07T04:11:12;3.93;;;2.80;;
20363;SDS011;10340;53.664;9.908;2022-12-07T04:13:39;2.77;;;2.37;;
20363;SDS011;10340;53.664;9.908;2022-12-07T04:16:24;3.57;;;2.37;;
20363;SDS011;10340;53.664;9.908;2022-12-07T04:18:51;3.87;;;2.83;;
20363;SDS011;10340;53.664;9.908;2022-12-07T04:21:18;2.97;;;2.13;;
20363;SDS011;10340;53.664;9.908;2022-12-07T04:23:45;4.67;;;2.47;;
20363;SDS011;10340;53.664;9.908;2022-12-07T04:26:12;3.20;;;2.40;;
20363;SDS011;10340;53.664;9.908;2022-12-07T04:28:39;3.97;;;2.67;;
20363;SDS011;10340;53.664;9.908;2022-12-07T04:31:06;2.80;;;2.50;;
20363;SDS011;10340;53.664;9.908;2022-12-07T04:33:35;4.97;;;2.77;;
20363;SDS011;10340;53.664;9.908;2022-12-07T04:36:02;3.97;;;3.00;;
20363;SDS011;10340;53.664;9.908;2022-12-07T04:38:29;3.73;;;2.57;;
20363;SDS011;10340;53.664;9.908;2022-12-07T04:40:56;3.67;;;2.93;;
20363;SDS011;10340;53.664;9.908;2022-12-07T04:43:23;5.57;;;3.07;;
20363;SDS011;10340;53.664;9.908;2022-12-07T04:45:50;3.90;;;2.83;;
20363;SDS011;10340;53.664;9.908;2022-12-07T04:48:17;4.80;;;2.87;;
20363;SDS011;10340;53.664;9.908;2022-12-07T04:50:47;4.93;;;3.03;;
20363;SDS011;10340;53.664;9.908;2022-12-07T04:53:14;3.83;;;2.90;;
20363;SDS011;10340;53.664;9.908;2022-12-07T04:55:41;3.30;;;2.63;;
20363;SDS011;10340;53.664;9.908;2022-12-07T04:58:08;4.43;;;2.90;;
20363;SDS011;10340;53.664;9.908;2022-12-07T05:00:35;3.83;;;3.07;;
20363;SDS011;10340;53.664;9.908;2022-12-07T05:03:02;3.63;;;3.27;;
20363;SDS011;10340;53.664;9.908;2022-12-07T05:05:30;6.13;;;3.43;;
20363;SDS011;10340;53.664;9.908;2022-12-07T05:07:58;4.67;;;3.03;;
20363;SDS011;10340;53.664;9.908;2022-12-07T05:10:25;3.20;;;2.90;;
20363;SDS011;10340;53.664;9.908;2022-12-07T05:12:52;4.90;;;3.17;;
20363;SDS011;10340;53.664;9.908;2022-12-07T05:15:19;4.33;;;2.60;;
20363;SDS011;10340;53.664;9.908;2022-12-07T05:17:46;3.63;;;2.80;;
20363;SDS011;10340;53.664;9.908;2022-12-07T05:20:13;4.37;;;3.20;;
20363;SDS011;10340;53.664;9.908;2022-12-07T05:22:40;3.40;;;3.00;;
20363;SDS011;10340;53.664;9.908;2022-12-07T05:25:08;3.70;;;3.23;;
20363;SDS011;10340;53.664;9.908;2022-12-07T05:27:35;3.77;;;2.83;;
20363;SDS011;10340;53.664;9.908;2022-12-07T05:30:03;3.10;;;2.80;;
20363;SDS011;10340;53.664;9.908;2022-12-07T05:32:31;3.93;;;2.80;;
20363;SDS011;10340;53.664;9.908;2022-12-07T05:34:57;4.07;;;3.23;;
20363;SDS011;10340;53.664;9.908;2022-12-07T05:37:24;4.03;;;3.07;;
20363;SDS011;10340;53.664;9.908;2022-12-07T05:39:51;4.13;;;2.90;;
20363;SDS011;10340;53.664;9.908;2022-12-07T05:42:20;4.90;;;2.43;;
20363;SDS011;10340;53.664;9.908;2022-12-07T05:44:47;4.57;;;3.50;;
20363;SDS011;10340;53.664;9.908;2022-12-07T05:47:14;6.00;;;3.23;;
20363;SDS011;10340;53.664;9.908;2022-12-07T05:49:42;2.67;;;2.43;;
20363;SDS011;10340;53.664;9.908;2022-12-07T05:52:09;5.03;;;2.87;;
20363;SDS011;10340;53.664;9.908;2022-12-07T05:54:36;3.10;;;2.60;;
20363;SDS011;10340;53.664;9.908;2022-12-07T05:57:03;3.33;;;2.90;;
20363;SDS011;10340;53.664;9.908;2022-12-07T05:59:31;3.47;;;3.17;;
20363;SDS011;10340;53.664;9.908;2022-12-07T06:01:58;5.17;;;3.03;;
20363;SDS011;10340;53.664;9.908;2022-12-07T06:04:27;4.30;;;2.87;;
20363;SDS011;10340;53.664;9.908;2022-12-07T06:06:56;3.17;;;2.93;;
20363;SDS011;10340;53.664;9.908;2022-12-07T06:09:24;4.50;;;3.23;;
20363;SDS011;10340;53.664;9.908;2022-12-07T06:11:53;3.77;;;3.40;;
20363;SDS011;10340;53.664;9.908;2022-12-07T06:14:40;4.00;;;3.27;;
20363;SDS011;10340;53.664;9.908;2022-12-07T06:17:07;3.43;;;2.90;;
20363;SDS011;10340;53.664;9.908;2022-12-07T06:19:35;3.90;;;3.03;;
20363;SDS011;10340;53.664;9.908;2022-12-07T06:22:02;4.67;;;3.43;;
20363;SDS011;10340;53.664;9.908;2022-12-07T06:24:30;4.80;;;3.10;;
20363;SDS011;10340;53.664;9.908;2022-12-07T06:26:58;3.37;;;2.90;;
20363;SDS011;10340;53.664;9.908;2022-12-07T06:29:26;4.63;;;2.70;;
20363;SDS011;10340;53.664;9.908;2022-12-07T06:31:54;5.10;;;3.20;;
20363;SDS011;10340;53.664;9.908;2022-12-07T06:34:22;3.47;;;3.17;;
20363;SDS011;10340;53.664;9.908;2022-12-07T06:36:50;3.20;;;2.90;;
20363;SDS011;10340;53.664;9.908;2022-12-07T06:39:19;3.33;;;3.03;;
20363;SDS011;10340;53.664;9.908;2022-12-07T06:41:46;4.53;;;2.87;;
20363;SDS011;10340;53.664;9.908;2022-12-07T06:44:14;4.17;;;2.90;;
20363;SDS011;10340;53.664;9.908;2022-12-07T06:46:41;3.40;;;2.80;;
20363;SDS011;10340;53.664;9.908;2022-12-07T06:49:09;4.40;;;2.70;;
20363;SDS011;10340;53.664;9.908;2022-12-07T06:51:36;4.07;;;2.70;;
20363;SDS011;10340;53.664;9.908;2022-12-07T06:54:06;3.80;;;3.40;;
20363;SDS011;10340;53.664;9.908;2022-12-07T06:56:33;6.63;;;3.17;;
20363;SDS011;10340;53.664;9.908;2022-12-07T06:59:02;4.00;;;2.60;;
20363;SDS011;10340;53.664;9.908;2022-12-07T07:01:30;3.30;;;2.97;;
20363;SDS011;10340;53.664;9.908;2022-12-07T07:03:58;4.17;;;2.63;;
20363;SDS011;10340;53.664;9.908;2022-12-07T07:06:26;4.37;;;2.70;;
20363;SDS011;10340;53.664;9.908;2022-12-07T07:08:53;4.17;;;3.20;;
20363;SDS011;10340;53.664;9.908;2022-12-07T07:11:20;3.87;;;3.00;;
20363;SDS011;10340;53.664;9.908;2022-12-07T07:13:47;2.50;;;2.30;;
20363;SDS011;10340;53.664;9.908;2022-12-07T07:16:14;3.30;;;2.50;;
20363;SDS011;10340;53.664;9.908;2022-12-07T07:18:41;4.20;;;2.67;;
20363;SDS011;10340;53.664;9.908;2022-12-07T07:21:08;2.50;;;2.30;;
20363;SDS011;10340;53.664;9.908;2022-12-07T07:23:37;3.30;;;2.33;;
20363;SDS011;10340;53.664;9.908;2022-12-07T07:26:04;3.13;;;2.60;;
20363;SDS011;10340;53.664;9.908;2022-12-07T07:28:31;2.40;;;2.03;;
20363;SDS011;10340;53.664;9.908;2022-12-07T07:30:58;4.43;;;2.50;;
20363;SDS011;10340;53.664;9.908;2022-12-07T07:33:25;3.67;;;2.00;;
20363;SDS011;10340;53.664;9.908;2022-12-07T07:35:52;2.80;;;2.30;;
20363;SDS011;10340;53.664;9.908;2022-12-07T07:38:19;2.80;;;2.03;;
20363;SDS011;10340;53.664;9.908;2022-12-07T07:40:47;4.27;;;2.47;;
20363;SDS011;10340;53.664;9.908;2022-12-07T07:43:14;5.37;;;2.27;;
20363;SDS011;10340;53.664;9.908;2022-12-07T07:45:41;5.30;;;2.10;;
20363;SDS011;10340;53.664;9.908;2022-12-07T07:48:08;2.87;;;2.23;;
20363;SDS011;10340;53.664;9.908;2022-12-07T07:50:35;1.90;;;1.67;;
20363;SDS011;10340;53.664;9.908;2022-12-07T07:53:02;2.60;;;2.00;;
20363;SDS011;10340;53.664;9.908;2022-12-07T07:55:29;4.43;;;2.87;;
20363;SDS011;10340;53.664;9.908;2022-12-07T07:57:57;5.43;;;1.80;;
20363;SDS011;10340;53.664;9.908;2022-12-07T08:00:24;2.47;;;1.87;;
20363;SDS011;10340;53.664;9.908;2022-12-07T08:02:51;3.07;;;2.27;;
20363;SDS011;10340;53.664;9.908;2022-12-07T08:05:18;3.27;;;2.00;;
20363;SDS011;10340;53.664;9.908;2022-12-07T08:07:45;3.13;;;1.40;;
20363;SDS011;10340;53.664;9.908;2022-12-07T08:10:13;1.70;;;1.60;;
20363;SDS011;10340;53.664;9.908;2022-12-07T08:12:40;2.47;;;1.57;;
20363;SDS011;10340;53.664;9.908;2022-12-07T08:15:24;3.33;;;1.90;;
20363;SDS011;10340;53.664;9.908;2022-12-07T08:17:51;2.43;;;1.60;;
20363;SDS011;10340;53.664;9.908;2022-12-07T08:20:18;3.77;;;1.40;;
20363;SDS011;10340;53.664;9.908;2022-12-07T08:22:45;5.23;;;2.27;;
20363;SDS011;10340;53.664;9.908;2022-12-07T08:25:12;5.07;;;1.80;;
20363;SDS011;10340;53.664;9.908;2022-12-07T08:27:39;4.67;;;1.73;;
20363;SDS011;10340;53.664;9.908;2022-12-07T08:30:06;3.40;;;1.43;;
20363;SDS011;10340;53.664;9.908;2022-12-07T08:32:35;5.23;;;1.60;;
20363;SDS011;10340;53.664;9.908;2022-12-07T08:35:03;8.10;;;1.57;;
20363;SDS011;10340;53.664;9.908;2022-12-07T08:37:30;5.23;;;1.67;;
20363;SDS011;10340;53.664;9.908;2022-12-07T08:39:58;2.43;;;1.53;;
20363;SDS011;10340;53.664;9.908;2022-12-07T08:42:25;3.13;;;1.73;;
20363;SDS011;10340;53.664;9.908;2022-12-07T08:44:55;3.50;;;1.60;;
20363;SDS011;10340;53.664;9.908;2022-12-07T08:47:22;3.03;;;2.00;;
20363;SDS011;10340;53.664;9.908;2022-12-07T08:49:52;3.70;;;1.57;;
20363;SDS011;10340;53.664;9.908;2022-12-07T08:52:20;2.97;;;1.70;;
20363;SDS011;10340;53.664;9.908;2022-12-07T08:54:47;2.20;;;1.60;;
20363;SDS011;10340;53.664;9.908;2022-12-07T08:57:15;4.17;;;2.70;;
20363;SDS011;10340;53.664;9.908;2022-12-07T08:59:42;2.53;;;2.10;;
20363;SDS011;10340;53.664;9.908;2022-12-07T09:02:09;4.03;;;1.63;;
20363;SDS011;10340;53.664;9.908;2022-12-07T09:04:37;2.97;;;1.67;;
20363;SDS011;10340;53.664;9.908;2022-12-07T09:07:05;8.77;;;2.47;;
20363;SDS011;10340;53.664;9.908;2022-12-07T09:09:32;4.27;;;1.80;;
20363;SDS011;10340;53.664;9.908;2022-12-07T09:11:59;2.47;;;1.33;;
20363;SDS011;10340;53.664;9.908;2022-12-07T09:14:26;4.23;;;1.90;;
20363;SDS011;10340;53.664;9.908;2022-12-07T09:16:53;3.10;;;2.00;;
20363;SDS011;10340;53.664;9.908;2022-12-07T09:19:20;2.47;;;1.73;;
20363;SDS011;10340;53.664;9.908;2022-12-07T09:21:47;2.70;;;1.63;;
20363;SDS011;10340;53.664;9.908;2022-12-07T09:24:15;6.03;;;2.00;;
20363;SDS011;10340;53.664;9.908;2022-12-07T09:26:42;3.57;;;1.63;;
20363;SDS011;10340;53.664;9.908;2022-12-07T09:29:09;3.83;;;1.70;;
20363;SDS011;10340;53.664;9.908;2022-12-07T09:31:36;3.77;;;1.50;;
20363;SDS011;10340;53.664;9.908;2022-12-07T09:34:03;3.20;;;1.90;;
20363;SDS011;10340;53.664;9.908;2022-12-07T09:36:31;4.33;;;1.70;;
20363;SDS011;10340;53.664;9.908;2022-12-07T09:38:58;2.47;;;1.70;;
20363;SDS011;10340;53.664;9.908;2022-12-07T09:41:27;3.07;;;1.70;;
20363;SDS011;10340;53.664;9.908;2022-12-07T09:43:58;4.00;;;1.90;;
20363;SDS011;10340;53.664;9.908;2022-12-07T09:46:31;3.97;;;1.60;;
20363;SDS011;10340;53.664;9.908;2022-12-07T09:49:02;3.03;;;1.80;;
20363;SDS011;10340;53.664;9.908;2022-12-07T09:51:30;2.37;;;1.60;;
20363;SDS011;10340;53.664;9.908;2022-12-07T09:53:58;6.37;;;1.93;;
20363;SDS011;10340;53.664;9.908;2022-12-07T09:56:28;5.97;;;1.80;;
20363;SDS011;10340;53.664;9.908;2022-12-07T09:58:58;5.20;;;2.00;;
20363;SDS011;10340;53.664;9.908;2022-12-07T10:01:27;4.00;;;1.97;;
20363;SDS011;10340;53.664;9.908;2022-12-07T10:03:58;3.70;;;1.47;;
20363;SDS011;10340;53.664;9.908;2022-12-07T10:06:31;7.20;;;2.00;;
20363;SDS011;10340;53.664;9.908;2022-12-07T10:08:58;4.57;;;1.50;;
20363;SDS011;10340;53.664;9.908;2022-12-07T10:11:27;5.00;;;1.60;;
20363;SDS011;10340;53.664;9.908;2022-12-07T10:13:54;3.37;;;1.60;;
20363;SDS011;10340;53.664;9.908;2022-12-07T10:16:30;2.80;;;2.00;;
20363;SDS011;10340;53.664;9.908;2022-12-07T10:19:16;5.57;;;1.77;;
20363;SDS011;10340;53.664;9.908;2022-12-07T10:24:30;4.13;;;1.30;;
20363;SDS011;10340;53.664;9.908;2022-12-07T10:26:58;1.60;;;1.13;;
20363;SDS011;10340;53.664;9.908;2022-12-07T10:29:28;2.40;;;1.40;;
20363;SDS011;10340;53.664;9.908;2022-12-07T10:31:58;3.50;;;1.53;;
20363;SDS011;10340;53.664;9.908;2022-12-07T10:34:27;2.60;;;1.20;;
20363;SDS011;10340;53.664;9.908;2022-12-07T10:37:06;5.47;;;1.17;;
20363;SDS011;10340;53.664;9.908;2022-12-07T10:39:40;3.37;;;1.50;;
20363;SDS011;10340;53.664;9.908;2022-12-07T10:42:15;5.67;;;1.00;;
20363;SDS011;10340;53.664;9.908;2022-12-07T10:44:44;3.90;;;1.20;;
20363;SDS011;10340;53.664;9.908;2022-12-07T10:47:19;3.43;;;1.03;;
20363;SDS011;10340;53.664;9.908;2022-12-07T10:50:13;3.83;;;1.20;;
20363;SDS011;10340;53.664;9.908;2022-12-07T10:52:58;5.03;;;1.40;;
20363;SDS011;10340;53.664;9.908;2022-12-07T10:55:40;2.03;;;1.07;;
20363;SDS011;10340;53.664;9.908;2022-12-07T10:58:20;2.20;;;1.23;;
20363;SDS011;10340;53.664;9.908;2022-12-07T11:00:58;3.73;;;1.33;;
20363;SDS011;10340;53.664;9.908;2022-12-07T11:03:41;4.20;;;1.57;;
20363;SDS011;10340;53.664;9.908;2022-12-07T11:06:16;3.17;;;1.27;;
20363;SDS011;10340;53.664;9.908;2022-12-07T11:08:57;2.60;;;1.10;;
20363;SDS011;10340;53.664;9.908;2022-12-07T11:11:51;2.23;;;1.37;;
20363;SDS011;10340;53.664;9.908;2022-12-07T11:14:28;3.33;;;1.43;;
20363;SDS011;10340;53.664;9.908;2022-12-07T11:17:01;4.03;;;1.37;;
20363;SDS011;10340;53.664;9.908;2022-12-07T11:19:42;3.97;;;1.20;;
20363;SDS011;10340;53.664;9.908;2022-12-07T11:22:23;3.17;;;1.17;;
20363;SDS011;10340;53.664;9.908;2022-12-07T11:24:56;2.97;;;1.17;;
20363;SDS011;10340;53.664;9.908;2022-12-07T11:27:30;5.93;;;1.47;;
20363;SDS011;10340;53.664;9.908;2022-12-07T11:32:53;4.53;;;1.40;;
20363;SDS011;10340;53.664;9.908;2022-12-07T11:35:31;3.90;;;2.10;;
20363;SDS011;10340;53.664;9.908;2022-12-07T11:38:07;3.73;;;1.10;;
20363;SDS011;10340;53.664;9.908;2022-12-07T11:40:38;1.30;;;1.20;;
20363;SDS011;10340;53.664;9.908;2022-12-07T11:43:13;6.07;;;1.47;;
20363;SDS011;10340;53.664;9.908;2022-12-07T11:45:49;2.87;;;1.23;;
20363;SDS011;10340;53.664;9.908;2022-12-07T11:48:27;7.53;;;1.63;;
20363;SDS011;10340;53.664;9.908;2022-12-07T11:50:58;3.93;;;1.40;;
20363;SDS011;10340;53.664;9.908;2022-12-07T11:53:28;2.30;;;1.43;;
20363;SDS011;10340;53.664;9.908;2022-12-07T11:56:00;3.13;;;1.53;;
20363;SDS011;10340;53.664;9.908;2022-12-07T11:58:40;3.47;;;1.73;;
20363;SDS011;10340;53.664;9.908;2022-12-07T12:04:19;1.77;;;1.30;;
20363;SDS011;10340;53.664;9.908;2022-12-07T12:06:55;5.77;;;2.50;;
20363;SDS011;10340;53.664;9.908;2022-12-07T12:09:23;3.47;;;1.30;;
20363;SDS011;10340;53.664;9.908;2022-12-07T12:12:03;4.07;;;1.50;;
20363;SDS011;10340;53.664;9.908;2022-12-07T12:14:48;2.60;;;1.20;;
20363;SDS011;10340;53.664;9.908;2022-12-07T12:17:43;4.00;;;1.40;;
20363;SDS011;10340;53.664;9.908;2022-12-07T12:20:23;2.97;;;1.33;;
20363;SDS011;10340;53.664;9.908;2022-12-07T12:25:35;4.07;;;1.20;;
20363;SDS011;10340;53.664;9.908;2022-12-07T12:28:15;6.07;;;2.20;;
20363;SDS011;10340;53.664;9.908;2022-12-07T12:30:49;5.33;;;1.33;;
20363;SDS011;10340;53.664;9.908;2022-12-07T12:33:33;3.63;;;1.37;;
20363;SDS011;10340;53.664;9.908;2022-12-07T12:39:11;4.13;;;1.33;;
20363;SDS011;10340;53.664;9.908;2022-12-07T12:51:35;4.03;;;1.10;;
20363;SDS011;10340;53.664;9.908;2022-12-07T12:54:04;2.90;;;1.07;;
20363;SDS011;10340;53.664;9.908;2022-12-07T12:56:39;4.00;;;1.00;;
20363;SDS011;10340;53.664;9.908;2022-12-07T12:59:23;3.43;;;0.80;;
20363;SDS011;10340;53.664;9.908;2022-12-07T13:01:54;2.37;;;0.60;;
20363;SDS011;10340;53.664;9.908;2022-12-07T13:04:48;1.47;;;0.70;;
20363;SDS011;10340;53.664;9.908;2022-12-07T13:10:24;3.13;;;1.00;;
20363;SDS011;10340;53.664;9.908;2022-12-07T13:13:01;4.40;;;1.53;;
20363;SDS011;10340;53.664;9.908;2022-12-07T13:15:36;4.47;;;1.10;;
20363;SDS011;10340;53.664;9.908;2022-12-07T13:18:14;2.33;;;0.97;;
20363;SDS011;10340;53.664;9.908;2022-12-07T13:20:51;6.17;;;1.23;;
20363;SDS011;10340;53.664;9.908;2022-12-07T13:23:23;1.97;;;1.00;;
20363;SDS011;10340;53.664;9.908;2022-12-07T13:25:59;5.03;;;1.03;;
20363;SDS011;10340;53.664;9.908;2022-12-07T13:28:35;2.63;;;0.93;;
20363;SDS011;10340;53.664;9.908;2022-12-07T13:31:13;3.70;;;1.20;;
20363;SDS011;10340;53.664;9.908;2022-12-07T13:34:27;4.27;;;1.20;;
20363;SDS011;10340;53.664;9.908;2022-12-07T13:36:57;3.77;;;0.93;;
20363;SDS011;10340;53.664;9.908;2022-12-07T13:39:27;3.20;;;1.37;;
20363;SDS011;10340;53.664;9.908;2022-12-07T13:41:55;2.90;;;1.30;;
20363;SDS011;10340;53.664;9.908;2022-12-07T13:44:23;2.87;;;1.10;;
20363;SDS011;10340;53.664;9.908;2022-12-07T13:47:00;4.00;;;1.87;;
20363;SDS011;10340;53.664;9.908;2022-12-07T13:49:36;2.97;;;1.40;;
20363;SDS011;10340;53.664;9.908;2022-12-07T13:52:13;2.97;;;1.17;;
20363;SDS011;10340;53.664;9.908;2022-12-07T13:54:48;7.57;;;2.07;;
20363;SDS011;10340;53.664;9.908;2022-12-07T13:57:21;2.13;;;1.00;;
20363;SDS011;10340;53.664;9.908;2022-12-07T13:59:50;1.70;;;0.90;;
20363;SDS011;10340;53.664;9.908;2022-12-07T14:02:18;3.07;;;1.07;;
20363;SDS011;10340;53.664;9.908;2022-12-07T14:04:48;6.30;;;1.10;;
20363;SDS011;10340;53.664;9.908;2022-12-07T14:07:18;2.73;;;1.10;;
20363;SDS011;10340;53.664;9.908;2022-12-07T14:09:58;3.33;;;1.00;;
20363;SDS011;10340;53.664;9.908;2022-12-07T14:12:27;4.00;;;1.33;;
20363;SDS011;10340;53.664;9.908;2022-12-07T14:14:55;1.67;;;0.77;;
20363;SDS011;10340;53.664;9.908;2022-12-07T14:17:23;1.93;;;0.90;;
20363;SDS011;10340;53.664;9.908;2022-12-07T14:19:52;2.67;;;0.77;;
20363;SDS011;10340;53.664;9.908;2022-12-07T14:22:23;3.50;;;1.23;;
20363;SDS011;10340;53.664;9.908;2022-12-07T14:24:59;4.17;;;1.20;;
20363;SDS011;10340;53.664;9.908;2022-12-07T14:27:30;2.53;;;1.30;;
20363;SDS011;10340;53.664;9.908;2022-12-07T14:30:00;3.83;;;1.00;;
20363;SDS011;10340;53.664;9.908;2022-12-07T14:32:28;1.47;;;1.03;;
20363;SDS011;10340;53.664;9.908;2022-12-07T14:35:00;2.40;;;1.27;;
20363;SDS011;10340;53.664;9.908;2022-12-07T14:37:29;2.10;;;0.90;;
20363;SDS011;10340;53.664;9.908;2022-12-07T14:39:56;1.67;;;0.70;;
20363;SDS011;10340;53.664;9.908;2022-12-07T14:42:26;2.07;;;0.90;;
20363;SDS011;10340;53.664;9.908;2022-12-07T14:44:55;2.83;;;1.10;;
20363;SDS011;10340;53.664;9.908;2022-12-07T14:47:23;1.47;;;0.90;;
20363;SDS011;10340;53.664;9.908;2022-12-07T14:49:51;3.63;;;0.90;;
20363;SDS011;10340;53.664;9.908;2022-12-07T14:52:19;1.90;;;0.80;;
20363;SDS011;10340;53.664;9.908;2022-12-07T14:54:49;2.10;;;1.03;;
20363;SDS011;10340;53.664;9.908;2022-12-07T14:57:17;4.20;;;0.70;;
20363;SDS011;10340;53.664;9.908;2022-12-07T14:59:44;3.47;;;1.07;;
20363;SDS011;10340;53.664;9.908;2022-12-07T15:02:11;1.10;;;0.83;;
20363;SDS011;10340;53.664;9.908;2022-12-07T15:04:40;0.80;;;0.80;;
20363;SDS011;10340;53.664;9.908;2022-12-07T15:07:10;1.70;;;0.97;;
20363;SDS011;10340;53.664;9.908;2022-12-07T15:09:43;0.97;;;0.60;;
20363;SDS011;10340;53.664;9.908;2022-12-07T15:12:10;3.70;;;0.90;;
20363;SDS011;10340;53.664;9.908;2022-12-07T15:14:38;3.47;;;1.13;;
20363;SDS011;10340;53.664;9.908;2022-12-07T15:17:05;1.67;;;1.33;;
20363;SDS011;10340;53.664;9.908;2022-12-07T15:19:32;6.60;;;3.87;;
20363;SDS011;10340;53.664;9.908;2022-12-07T15:21:59;19.50;;;10.30;;
20363;SDS011;10340;53.664;9.908;2022-12-07T15:24:26;41.03;;;21.43;;
20363;SDS011;10340;53.664;9.908;2022-12-07T15:26:53;23.03;;;12.93;;
20363;SDS011;10340;53.664;9.908;2022-12-07T15:29:20;10.90;;;6.83;;
20363;SDS011;10340;53.664;9.908;2022-12-07T15:31:49;4.70;;;2.70;;
20363;SDS011;10340;53.664;9.908;2022-12-07T15:34:16;2.53;;;1.10;;
20363;SDS011;10340;53.664;9.908;2022-12-07T15:36:43;2.10;;;1.13;;